createdAt,value
2022-11-16T00:03:17.700Z,3.95
2022-11-16T00:08:19.935Z,4.32
2022-11-16T00:13:23.720Z,4.10
2022-11-16T00:18:26.010Z,4.15
2022-11-16T00:23:30.517Z,4.60
2022-11-16T00:28:34.846Z,4.53
2022-11-16T00:33:37.573Z,4.53
2022-11-16T00:38:41.084Z,4.50
2022-11-16T00:43:44.950Z,4.63
2022-11-16T00:48:50.150Z,4.57
2022-11-16T00:53:52.293Z,4.88
2022-11-16T00:58:55.900Z,4.88
2022-11-16T01:03:58.183Z,5.00
2022-11-16T01:09:00.690Z,5.20
2022-11-16T01:14:10.060Z,4.90
2022-11-16T01:19:12.295Z,5.05
2022-11-16T01:24:14.785Z,5.15
2022-11-16T01:29:18.454Z,5.13
2022-11-16T01:34:20.930Z,4.97
2022-11-16T01:39:23.802Z,5.55
2022-11-16T01:45:07.613Z,5.22
2022-11-16T01:50:17.180Z,5.30
2022-11-16T01:55:20.154Z,5.10
2022-11-16T02:00:23.200Z,5.22
2022-11-16T02:05:38.110Z,5.85
2022-11-16T02:10:57.181Z,5.88
2022-11-16T02:16:07.885Z,5.35
2022-11-16T02:21:24.166Z,5.32
2022-11-16T02:26:51.277Z,4.65
2022-11-16T02:37:02.619Z,5.13
2022-11-16T02:42:09.733Z,5.25
2022-11-16T02:47:20.754Z,5.82
2022-11-16T02:52:24.249Z,5.35
2022-11-16T02:57:43.195Z,5.53
2022-11-16T03:02:58.446Z,6.53
2022-11-16T03:08:18.359Z,5.95
2022-11-16T03:13:23.338Z,6.07
2022-11-16T03:18:28.882Z,6.13
2022-11-16T03:23:31.205Z,6.20
2022-11-16T03:28:41.435Z,5.80
2022-11-16T03:33:52.483Z,6.43
2022-11-16T03:38:58.198Z,5.60
2022-11-16T03:44:01.156Z,5.95
2022-11-16T03:49:06.113Z,6.57
2022-11-16T03:54:11.269Z,6.90
2022-11-16T04:04:19.373Z,6.30
2022-11-16T04:09:21.602Z,7.13
2022-11-16T04:14:25.372Z,6.30
2022-11-16T04:19:34.388Z,6.35
2022-11-16T04:24:38.776Z,7.05
2022-11-16T04:29:41.775Z,6.68
2022-11-16T04:34:45.466Z,7.45
2022-11-16T04:39:47.727Z,6.80
2022-11-16T04:44:53.090Z,6.65
2022-11-16T04:49:56.869Z,6.22
2022-11-16T04:54:59.210Z,7.38
2022-11-16T05:00:01.610Z,5.90
2022-11-16T05:05:06.165Z,7.72
2022-11-16T05:10:09.300Z,6.35
2022-11-16T05:15:11.854Z,6.82
2022-11-16T05:20:16.277Z,6.70
2022-11-16T05:25:18.766Z,7.82
2022-11-16T05:30:21.095Z,7.93
2022-11-16T05:35:28.331Z,7.15
2022-11-16T05:40:30.745Z,9.05
2022-11-16T05:45:33.107Z,8.77
2022-11-16T05:50:42.366Z,8.38
2022-11-16T05:55:51.374Z,7.47
2022-11-16T06:00:54.002Z,10.55
2022-11-16T06:05:58.860Z,10.32
2022-11-16T06:11:02.851Z,9.52
2022-11-16T06:16:06.093Z,10.80
2022-11-16T06:21:11.271Z,10.93
2022-11-16T06:26:14.061Z,11.35
2022-11-16T06:31:16.549Z,12.13
2022-11-16T06:36:20.368Z,9.77
2022-11-16T06:41:22.683Z,11.43
2022-11-16T06:46:26.982Z,12.35
2022-11-16T06:51:30.637Z,10.77
2022-11-16T06:56:34.404Z,10.73
2022-11-16T07:01:36.695Z,10.93
2022-11-16T07:06:40.785Z,11.52
2022-11-16T07:11:46.045Z,11.25
2022-11-16T07:16:48.305Z,11.45
2022-11-16T07:21:52.006Z,9.68
2022-11-16T07:26:54.281Z,10.50
2022-11-16T07:31:56.700Z,9.68
2022-11-16T07:37:03.249Z,8.82
2022-11-16T07:42:05.668Z,10.67
2022-11-16T07:47:07.896Z,10.20
2022-11-16T07:52:11.693Z,10.07
2022-11-16T07:57:14.128Z,10.20
2022-11-16T08:02:19.465Z,9.77
2022-11-16T08:07:23.467Z,9.40
2022-11-16T08:12:25.969Z,9.85
2022-11-16T08:17:28.313Z,8.15
2022-11-16T08:22:32.066Z,8.27
2022-11-16T08:27:38.962Z,7.75
2022-11-16T08:32:42.938Z,8.95
2022-11-16T08:37:46.721Z,8.85
2022-11-16T08:42:49.134Z,9.75
2022-11-16T08:48:02.902Z,7.80
2022-11-16T08:53:07.616Z,8.27
2022-11-16T08:58:10.229Z,8.15
2022-11-16T09:03:12.940Z,7.53
2022-11-16T09:08:16.822Z,7.50
2022-11-16T09:13:21.746Z,8.23
2022-11-16T09:18:24.205Z,7.13
2022-11-16T09:23:28.405Z,7.90
2022-11-16T09:28:31.710Z,8.63
2022-11-16T09:33:35.115Z,7.57
2022-11-16T09:39:17.793Z,7.95
2022-11-16T09:44:17.115Z,8.13
2022-11-16T09:49:28.605Z,8.40
2022-11-16T09:54:38.211Z,8.75
2022-11-16T09:59:45.472Z,9.65
2022-11-16T10:10:04.081Z,9.95
2022-11-16T10:15:30.511Z,9.73
2022-11-16T10:20:55.716Z,10.23
2022-11-16T10:26:13.370Z,10.80
2022-11-16T10:31:22.284Z,9.88
2022-11-16T10:36:30.326Z,9.63
2022-11-16T10:41:40.182Z,10.00
2022-11-16T10:46:46.028Z,10.85
2022-11-16T10:51:48.325Z,10.65
2022-11-16T10:57:00.146Z,10.73
2022-11-16T11:02:33.197Z,10.38
2022-11-16T11:07:42.183Z,11.43
2022-11-16T11:13:06.469Z,11.48
2022-11-16T11:18:27.787Z,11.25
2022-11-16T11:23:44.059Z,10.55
2022-11-16T11:28:51.007Z,11.80
2022-11-16T11:33:55.909Z,11.45
2022-11-16T11:39:07.551Z,11.80
2022-11-16T11:44:18.510Z,11.57
2022-11-16T11:49:30.430Z,10.95
2022-11-16T11:54:45.881Z,11.70
2022-11-16T11:59:53.001Z,10.85
2022-11-16T12:05:23.669Z,11.18
2022-11-16T12:10:35.676Z,9.90
2022-11-16T12:16:03.325Z,10.45
2022-11-16T12:21:12.113Z,9.90
2022-11-16T12:26:26.184Z,8.95
2022-11-16T12:32:03.472Z,9.68
2022-11-16T12:37:16.719Z,9.35
2022-11-16T12:42:31.502Z,9.90
2022-11-16T12:47:49.085Z,10.40
2022-11-16T12:53:09.377Z,10.38
2022-11-16T12:58:19.969Z,10.38
2022-11-16T13:03:33.987Z,8.73
2022-11-16T13:08:43.845Z,9.80
2022-11-16T13:13:52.929Z,9.85
2022-11-16T13:19:01.103Z,8.98
2022-11-16T13:29:22.499Z,8.48
2022-11-16T13:34:31.515Z,8.50
2022-11-16T13:40:25.850Z,8.88
2022-11-16T13:45:33.124Z,8.65
2022-11-16T13:55:43.379Z,9.93
2022-11-16T14:00:57.669Z,11.70
2022-11-16T14:06:01.520Z,10.60
2022-11-16T14:11:04.504Z,11.82
2022-11-16T14:16:54.280Z,12.63
2022-11-16T14:22:07.581Z,13.32
2022-11-16T14:27:23.473Z,12.98
2022-11-16T14:32:35.872Z,16.55
2022-11-16T14:37:43.488Z,16.25
2022-11-16T14:43:14.944Z,15.73
2022-11-16T14:48:16.320Z,16.85
2022-11-16T14:53:20.564Z,16.67
2022-11-16T14:58:23.647Z,17.27
2022-11-16T15:03:32.859Z,16.10
2022-11-16T15:08:40.448Z,17.50
2022-11-16T15:13:45.852Z,17.27
2022-11-16T15:18:59.638Z,14.13
2022-11-16T15:24:29.417Z,16.60
2022-11-16T15:29:27.740Z,15.90
2022-11-16T15:34:31.586Z,15.48
2022-11-16T15:39:39.946Z,15.23
2022-11-16T15:44:45.381Z,13.80
2022-11-16T15:49:48.799Z,14.63
2022-11-16T15:54:58.011Z,14.48
2022-11-16T16:00:00.499Z,13.25
2022-11-16T16:05:02.820Z,14.77
2022-11-16T16:10:24.945Z,14.15
2022-11-16T16:15:29.736Z,12.27
2022-11-16T16:20:33.266Z,13.88
2022-11-16T16:25:37.470Z,16.63
2022-11-16T16:30:39.733Z,15.80
2022-11-16T16:35:41.972Z,14.68
2022-11-16T16:40:45.950Z,14.02
2022-11-16T16:45:48.425Z,12.73
2022-11-16T16:50:50.638Z,12.50
2022-11-16T16:55:54.544Z,12.10
2022-11-16T17:01:01.336Z,13.00
2022-11-16T17:06:04.166Z,12.50
2022-11-16T17:11:07.986Z,12.13
2022-11-16T17:16:10.296Z,11.45
2022-11-16T17:21:12.453Z,11.55
2022-11-16T17:26:16.410Z,12.20
2022-11-16T17:31:18.803Z,12.32
2022-11-16T17:36:21.125Z,10.45
2022-11-16T17:41:25.643Z,11.25
2022-11-16T17:46:27.948Z,10.45
2022-11-16T17:51:30.201Z,11.02
2022-11-16T17:56:33.949Z,10.98
2022-11-16T18:01:36.235Z,11.27
2022-11-16T18:06:38.542Z,11.48
2022-11-16T18:11:42.518Z,11.57
2022-11-16T18:16:44.839Z,12.18
2022-11-16T18:21:47.478Z,11.77
2022-11-16T18:26:51.190Z,11.05
2022-11-16T18:31:53.448Z,11.25
2022-11-16T18:36:56.488Z,11.27
2022-11-16T18:42:00.302Z,13.15
2022-11-16T18:47:03.025Z,12.07
2022-11-16T18:52:05.324Z,13.07
2022-11-16T18:57:09.490Z,13.48
2022-11-16T19:02:12.096Z,11.98
2022-11-16T19:07:14.555Z,13.25
2022-11-16T19:12:18.483Z,12.98
2022-11-16T19:17:20.858Z,12.13
2022-11-16T19:22:23.208Z,11.52
2022-11-16T19:27:27.064Z,9.43
2022-11-16T19:32:29.294Z,11.18
2022-11-16T19:37:32.026Z,9.70
2022-11-16T19:42:35.783Z,9.43
2022-11-16T19:47:38.033Z,10.18
2022-11-16T19:52:43.259Z,9.70
2022-11-16T19:57:47.136Z,9.32
2022-11-16T20:02:49.359Z,9.27
2022-11-16T20:07:51.652Z,8.60
2022-11-16T20:12:55.431Z,8.90
2022-11-16T20:18:01.960Z,10.38
2022-11-16T20:23:05.123Z,8.23
2022-11-16T20:28:09.319Z,9.05
2022-11-16T20:33:12.360Z,8.68
2022-11-16T20:38:14.727Z,8.20
2022-11-16T20:43:19.937Z,7.40
2022-11-16T20:48:22.608Z,7.80
2022-11-16T20:53:26.709Z,8.13
2022-11-16T20:58:30.656Z,6.97
2022-11-16T21:03:33.409Z,6.93
2022-11-16T21:08:42.954Z,6.47
2022-11-16T21:13:48.465Z,6.45
2022-11-16T21:18:50.759Z,7.93
2022-11-16T21:23:53.604Z,7.45
2022-11-16T21:29:00.767Z,7.70
2022-11-16T21:39:06.017Z,6.78
2022-11-16T21:44:09.923Z,6.30
2022-11-16T21:49:12.294Z,6.63
2022-11-16T21:54:14.523Z,7.28
2022-11-16T21:59:18.368Z,6.18
2022-11-16T22:04:21.487Z,5.90
2022-11-16T22:09:23.788Z,5.68
2022-11-16T22:14:27.577Z,6.70
2022-11-16T22:19:29.805Z,5.82
2022-11-16T22:24:32.107Z,6.10
2022-11-16T22:29:35.953Z,6.30
2022-11-16T22:34:38.262Z,5.88
2022-11-16T22:39:40.707Z,6.20
2022-11-16T22:44:44.520Z,5.50
2022-11-16T22:49:46.965Z,5.25
2022-11-16T22:54:49.263Z,5.57
2022-11-16T22:59:52.970Z,6.13
2022-11-16T23:04:55.198Z,6.55
2022-11-16T23:09:57.462Z,5.60
2022-11-16T23:15:01.247Z,6.72
2022-11-16T23:20:04.113Z,6.70
2022-11-16T23:25:08.373Z,6.55
2022-11-16T23:30:13.477Z,6.70
2022-11-16T23:35:16.122Z,7.13
2022-11-16T23:40:18.571Z,6.10
2022-11-16T23:45:22.373Z,6.43
2022-11-16T23:50:24.892Z,5.90
2022-11-16T23:55:27.780Z,6.13
